sensor_id;sensor_type;location;lat;lon;timestamp;P1;durP1;ratioP1;P2;durP2;ratioP2
11125;SDS011;5617;54.046;10.676;2023-06-04T00:01:57;1.27;;;1.10;;
11125;SDS011;5617;54.046;10.676;2023-06-04T00:04:14;1.90;;;1.20;;
11125;SDS011;5617;54.046;10.676;2023-06-04T00:06:32;3.77;;;1.50;;
11125;SDS011;5617;54.046;10.676;2023-06-04T00:08:50;1.53;;;1.10;;
11125;SDS011;5617;54.046;10.676;2023-06-04T00:11:06;1.33;;;1.23;;
11125;SDS011;5617;54.046;10.676;2023-06-04T00:13:23;1.47;;;1.20;;
11125;SDS011;5617;54.046;10.676;2023-06-04T00:15:39;2.70;;;1.30;;
11125;SDS011;5617;54.046;10.676;2023-06-04T00:17:58;2.20;;;1.30;;
11125;SDS011;5617;54.046;10.676;2023-06-04T00:20:15;3.20;;;1.30;;
11125;SDS011;5617;54.046;10.676;2023-06-04T00:22:32;1.90;;;1.30;;
11125;SDS011;5617;54.046;10.676;2023-06-04T00:24:49;2.70;;;1.60;;
11125;SDS011;5617;54.046;10.676;2023-06-04T00:27:06;2.00;;;1.60;;
11125;SDS011;5617;54.046;10.676;2023-06-04T00:29:23;3.07;;;2.20;;
11125;SDS011;5617;54.046;10.676;2023-06-04T00:31:43;4.07;;;2.43;;
11125;SDS011;5617;54.046;10.676;2023-06-04T00:34:01;3.03;;;2.60;;
11125;SDS011;5617;54.046;10.676;2023-06-04T00:36:17;2.93;;;2.03;;
11125;SDS011;5617;54.046;10.676;2023-06-04T00:38:34;3.87;;;2.73;;
11125;SDS011;5617;54.046;10.676;2023-06-04T00:40:51;2.73;;;2.47;;
11125;SDS011;5617;54.046;10.676;2023-06-04T00:43:14;2.87;;;2.37;;
11125;SDS011;5617;54.046;10.676;2023-06-04T00:45:30;2.60;;;2.40;;
11125;SDS011;5617;54.046;10.676;2023-06-04T00:47:55;3.20;;;2.00;;
11125;SDS011;5617;54.046;10.676;2023-06-04T00:50:12;2.20;;;2.00;;
11125;SDS011;5617;54.046;10.676;2023-06-04T00:52:30;2.90;;;2.10;;
11125;SDS011;5617;54.046;10.676;2023-06-04T00:54:46;2.83;;;2.40;;
11125;SDS011;5617;54.046;10.676;2023-06-04T00:57:03;1.90;;;1.63;;
11125;SDS011;5617;54.046;10.676;2023-06-04T00:59:21;1.93;;;1.37;;
11125;SDS011;5617;54.046;10.676;2023-06-04T01:01:39;2.13;;;1.33;;
11125;SDS011;5617;54.046;10.676;2023-06-04T01:04:03;1.60;;;1.20;;
11125;SDS011;5617;54.046;10.676;2023-06-04T01:06:28;2.00;;;1.43;;
11125;SDS011;5617;54.046;10.676;2023-06-04T01:08:51;1.27;;;1.17;;
11125;SDS011;5617;54.046;10.676;2023-06-04T01:11:09;2.87;;;1.50;;
11125;SDS011;5617;54.046;10.676;2023-06-04T01:13:26;1.90;;;1.37;;
11125;SDS011;5617;54.046;10.676;2023-06-04T01:15:42;3.33;;;1.50;;
11125;SDS011;5617;54.046;10.676;2023-06-04T01:17:59;3.40;;;1.50;;
11125;SDS011;5617;54.046;10.676;2023-06-04T01:20:19;1.60;;;1.50;;
11125;SDS011;5617;54.046;10.676;2023-06-04T01:22:48;1.60;;;1.50;;
11125;SDS011;5617;54.046;10.676;2023-06-04T01:25:20;1.40;;;1.30;;
11125;SDS011;5617;54.046;10.676;2023-06-04T01:27:40;1.57;;;1.47;;
11125;SDS011;5617;54.046;10.676;2023-06-04T01:30:00;1.80;;;1.33;;
11125;SDS011;5617;54.046;10.676;2023-06-04T01:32:18;2.00;;;1.20;;
11125;SDS011;5617;54.046;10.676;2023-06-04T01:34:50;1.30;;;1.20;;
11125;SDS011;5617;54.046;10.676;2023-06-04T01:37:07;1.70;;;1.20;;
11125;SDS011;5617;54.046;10.676;2023-06-04T01:39:28;1.47;;;1.37;;
11125;SDS011;5617;54.046;10.676;2023-06-04T01:41:45;1.20;;;1.10;;
11125;SDS011;5617;54.046;10.676;2023-06-04T01:44:02;1.40;;;1.10;;
11125;SDS011;5617;54.046;10.676;2023-06-04T01:46:19;1.57;;;1.17;;
11125;SDS011;5617;54.046;10.676;2023-06-04T01:48:36;2.67;;;1.23;;
11125;SDS011;5617;54.046;10.676;2023-06-04T01:50:53;1.27;;;1.17;;
11125;SDS011;5617;54.046;10.676;2023-06-04T01:53:10;2.00;;;1.17;;
11125;SDS011;5617;54.046;10.676;2023-06-04T01:55:29;1.17;;;1.07;;
11125;SDS011;5617;54.046;10.676;2023-06-04T01:57:48;1.20;;;1.10;;
11125;SDS011;5617;54.046;10.676;2023-06-04T02:00:06;1.70;;;1.10;;
11125;SDS011;5617;54.046;10.676;2023-06-04T02:02:26;2.63;;;1.40;;
11125;SDS011;5617;54.046;10.676;2023-06-04T02:04:43;1.30;;;1.20;;
11125;SDS011;5617;54.046;10.676;2023-06-04T02:06:59;1.87;;;1.30;;
11125;SDS011;5617;54.046;10.676;2023-06-04T02:09:16;1.50;;;1.30;;
11125;SDS011;5617;54.046;10.676;2023-06-04T02:11:35;1.83;;;1.40;;
11125;SDS011;5617;54.046;10.676;2023-06-04T02:13:52;2.23;;;1.23;;
11125;SDS011;5617;54.046;10.676;2023-06-04T02:16:09;1.40;;;1.10;;
11125;SDS011;5617;54.046;10.676;2023-06-04T02:18:26;1.10;;;1.10;;
11125;SDS011;5617;54.046;10.676;2023-06-04T02:20:42;1.60;;;1.30;;
11125;SDS011;5617;54.046;10.676;2023-06-04T02:23:00;1.43;;;1.30;;
11125;SDS011;5617;54.046;10.676;2023-06-04T02:25:16;1.40;;;1.20;;
11125;SDS011;5617;54.046;10.676;2023-06-04T02:27:34;1.47;;;1.20;;
11125;SDS011;5617;54.046;10.676;2023-06-04T02:29:52;3.20;;;1.40;;
11125;SDS011;5617;54.046;10.676;2023-06-04T02:32:09;1.33;;;1.23;;
11125;SDS011;5617;54.046;10.676;2023-06-04T02:34:25;3.33;;;1.60;;
11125;SDS011;5617;54.046;10.676;2023-06-04T02:36:42;1.40;;;1.30;;
11125;SDS011;5617;54.046;10.676;2023-06-04T02:39:08;1.37;;;1.17;;
11125;SDS011;5617;54.046;10.676;2023-06-04T02:41:24;1.63;;;1.40;;
11125;SDS011;5617;54.046;10.676;2023-06-04T02:43:32;1.30;;;1.20;;
11125;SDS011;5617;54.046;10.676;2023-06-04T02:45:49;2.07;;;1.20;;
11125;SDS011;5617;54.046;10.676;2023-06-04T02:48:07;1.17;;;1.10;;
11125;SDS011;5617;54.046;10.676;2023-06-04T02:50:24;1.40;;;1.30;;
11125;SDS011;5617;54.046;10.676;2023-06-04T02:52:41;1.70;;;1.30;;
11125;SDS011;5617;54.046;10.676;2023-06-04T02:54:58;1.33;;;1.23;;
11125;SDS011;5617;54.046;10.676;2023-06-04T02:57:19;3.53;;;1.53;;
11125;SDS011;5617;54.046;10.676;2023-06-04T02:59:36;1.40;;;1.30;;
11125;SDS011;5617;54.046;10.676;2023-06-04T03:01:53;1.30;;;1.20;;
11125;SDS011;5617;54.046;10.676;2023-06-04T03:04:10;1.97;;;1.50;;
11125;SDS011;5617;54.046;10.676;2023-06-04T03:06:29;1.27;;;1.20;;
11125;SDS011;5617;54.046;10.676;2023-06-04T03:08:46;1.43;;;1.27;;
11125;SDS011;5617;54.046;10.676;2023-06-04T03:11:03;1.40;;;1.30;;
11125;SDS011;5617;54.046;10.676;2023-06-04T03:13:19;1.30;;;1.20;;
11125;SDS011;5617;54.046;10.676;2023-06-04T03:15:37;1.40;;;1.30;;
11125;SDS011;5617;54.046;10.676;2023-06-04T03:17:54;1.20;;;1.10;;
11125;SDS011;5617;54.046;10.676;2023-06-04T03:20:11;1.20;;;1.20;;
11125;SDS011;5617;54.046;10.676;2023-06-04T03:22:29;1.40;;;1.30;;
11125;SDS011;5617;54.046;10.676;2023-06-04T03:24:46;1.40;;;1.17;;
11125;SDS011;5617;54.046;10.676;2023-06-04T03:27:03;1.40;;;1.30;;
11125;SDS011;5617;54.046;10.676;2023-06-04T03:29:22;1.67;;;1.30;;
11125;SDS011;5617;54.046;10.676;2023-06-04T03:31:40;1.10;;;1.10;;
11125;SDS011;5617;54.046;10.676;2023-06-04T03:34:01;1.53;;;1.20;;
11125;SDS011;5617;54.046;10.676;2023-06-04T03:36:18;2.10;;;1.10;;
11125;SDS011;5617;54.046;10.676;2023-06-04T03:38:37;1.50;;;1.40;;
11125;SDS011;5617;54.046;10.676;2023-06-04T03:40:56;1.40;;;1.27;;
11125;SDS011;5617;54.046;10.676;2023-06-04T03:43:13;1.93;;;1.27;;
11125;SDS011;5617;54.046;10.676;2023-06-04T03:45:32;1.70;;;1.27;;
11125;SDS011;5617;54.046;10.676;2023-06-04T03:47:51;1.30;;;1.20;;
11125;SDS011;5617;54.046;10.676;2023-06-04T03:50:08;2.60;;;1.33;;
11125;SDS011;5617;54.046;10.676;2023-06-04T03:52:25;1.47;;;1.37;;
11125;SDS011;5617;54.046;10.676;2023-06-04T03:54:42;2.10;;;1.40;;
11125;SDS011;5617;54.046;10.676;2023-06-04T03:56:58;1.90;;;1.37;;
11125;SDS011;5617;54.046;10.676;2023-06-04T03:59:15;1.63;;;1.20;;
11125;SDS011;5617;54.046;10.676;2023-06-04T04:01:31;1.40;;;1.30;;
11125;SDS011;5617;54.046;10.676;2023-06-04T04:03:50;1.27;;;1.20;;
11125;SDS011;5617;54.046;10.676;2023-06-04T04:06:06;1.23;;;1.13;;
11125;SDS011;5617;54.046;10.676;2023-06-04T04:08:24;1.57;;;1.47;;
11125;SDS011;5617;54.046;10.676;2023-06-04T04:10:46;2.10;;;1.53;;
11125;SDS011;5617;54.046;10.676;2023-06-04T04:13:03;2.30;;;1.30;;
11125;SDS011;5617;54.046;10.676;2023-06-04T04:15:20;3.17;;;1.57;;
11125;SDS011;5617;54.046;10.676;2023-06-04T04:17:37;2.80;;;1.70;;
11125;SDS011;5617;54.046;10.676;2023-06-04T04:19:56;1.73;;;1.40;;
11125;SDS011;5617;54.046;10.676;2023-06-04T04:22:13;1.50;;;1.40;;
11125;SDS011;5617;54.046;10.676;2023-06-04T04:24:32;1.73;;;1.40;;
11125;SDS011;5617;54.046;10.676;2023-06-04T04:26:51;3.20;;;1.60;;
11125;SDS011;5617;54.046;10.676;2023-06-04T04:29:09;1.70;;;1.60;;
11125;SDS011;5617;54.046;10.676;2023-06-04T04:31:26;2.53;;;1.57;;
11125;SDS011;5617;54.046;10.676;2023-06-04T04:33:42;1.77;;;1.50;;
11125;SDS011;5617;54.046;10.676;2023-06-04T04:36:00;1.90;;;1.50;;
11125;SDS011;5617;54.046;10.676;2023-06-04T04:38:17;2.17;;;1.63;;
11125;SDS011;5617;54.046;10.676;2023-06-04T04:40:34;2.33;;;1.33;;
11125;SDS011;5617;54.046;10.676;2023-06-04T04:42:50;1.73;;;1.30;;
11125;SDS011;5617;54.046;10.676;2023-06-04T04:45:07;2.33;;;1.60;;
11125;SDS011;5617;54.046;10.676;2023-06-04T04:47:28;1.73;;;1.30;;
11125;SDS011;5617;54.046;10.676;2023-06-04T04:49:46;1.90;;;1.27;;
11125;SDS011;5617;54.046;10.676;2023-06-04T04:52:05;2.43;;;1.40;;
11125;SDS011;5617;54.046;10.676;2023-06-04T04:54:21;2.53;;;1.70;;
11125;SDS011;5617;54.046;10.676;2023-06-04T04:56:38;2.07;;;1.47;;
11125;SDS011;5617;54.046;10.676;2023-06-04T04:59:04;2.27;;;1.37;;
11125;SDS011;5617;54.046;10.676;2023-06-04T05:01:21;2.40;;;1.40;;
11125;SDS011;5617;54.046;10.676;2023-06-04T05:03:38;2.80;;;1.80;;
11125;SDS011;5617;54.046;10.676;2023-06-04T05:05:55;3.63;;;1.97;;
11125;SDS011;5617;54.046;10.676;2023-06-04T05:08:13;2.53;;;1.40;;
11125;SDS011;5617;54.046;10.676;2023-06-04T05:10:30;2.20;;;1.83;;
11125;SDS011;5617;54.046;10.676;2023-06-04T05:12:56;2.40;;;1.57;;
11125;SDS011;5617;54.046;10.676;2023-06-04T05:15:14;3.73;;;1.70;;
11125;SDS011;5617;54.046;10.676;2023-06-04T05:17:33;4.23;;;1.90;;
11125;SDS011;5617;54.046;10.676;2023-06-04T05:19:50;7.17;;;2.30;;
11125;SDS011;5617;54.046;10.676;2023-06-04T05:22:08;4.90;;;1.90;;
11125;SDS011;5617;54.046;10.676;2023-06-04T05:24:26;5.03;;;1.87;;
11125;SDS011;5617;54.046;10.676;2023-06-04T05:26:43;3.87;;;1.47;;
11125;SDS011;5617;54.046;10.676;2023-06-04T05:29:00;5.33;;;1.90;;
11125;SDS011;5617;54.046;10.676;2023-06-04T05:31:19;2.90;;;1.97;;
11125;SDS011;5617;54.046;10.676;2023-06-04T05:33:35;4.07;;;2.03;;
11125;SDS011;5617;54.046;10.676;2023-06-04T05:35:52;6.07;;;2.10;;
11125;SDS011;5617;54.046;10.676;2023-06-04T05:38:12;3.10;;;2.00;;
11125;SDS011;5617;54.046;10.676;2023-06-04T05:40:45;3.33;;;2.13;;
11125;SDS011;5617;54.046;10.676;2023-06-04T05:43:08;5.20;;;2.10;;
11125;SDS011;5617;54.046;10.676;2023-06-04T05:45:26;4.10;;;1.97;;
11125;SDS011;5617;54.046;10.676;2023-06-04T05:47:49;4.47;;;1.90;;
11125;SDS011;5617;54.046;10.676;2023-06-04T05:50:09;5.77;;;2.20;;
11125;SDS011;5617;54.046;10.676;2023-06-04T05:52:26;5.00;;;2.20;;
11125;SDS011;5617;54.046;10.676;2023-06-04T05:54:43;3.33;;;1.77;;
11125;SDS011;5617;54.046;10.676;2023-06-04T05:57:01;3.60;;;1.90;;
11125;SDS011;5617;54.046;10.676;2023-06-04T05:59:18;6.57;;;2.20;;
11125;SDS011;5617;54.046;10.676;2023-06-04T06:01:35;3.60;;;1.80;;
11125;SDS011;5617;54.046;10.676;2023-06-04T06:03:54;4.17;;;2.20;;
11125;SDS011;5617;54.046;10.676;2023-06-04T06:06:11;3.80;;;1.97;;
11125;SDS011;5617;54.046;10.676;2023-06-04T06:08:29;3.83;;;2.10;;
11125;SDS011;5617;54.046;10.676;2023-06-04T06:10:46;5.47;;;2.10;;
11125;SDS011;5617;54.046;10.676;2023-06-04T06:13:05;3.60;;;1.93;;
11125;SDS011;5617;54.046;10.676;2023-06-04T06:15:22;4.23;;;1.90;;
11125;SDS011;5617;54.046;10.676;2023-06-04T06:17:40;3.40;;;1.80;;
11125;SDS011;5617;54.046;10.676;2023-06-04T06:19:58;6.77;;;2.43;;
11125;SDS011;5617;54.046;10.676;2023-06-04T06:22:16;3.93;;;1.90;;
11125;SDS011;5617;54.046;10.676;2023-06-04T06:24:33;4.47;;;2.20;;
11125;SDS011;5617;54.046;10.676;2023-06-04T06:26:51;5.87;;;1.97;;
11125;SDS011;5617;54.046;10.676;2023-06-04T06:29:10;6.87;;;2.13;;
11125;SDS011;5617;54.046;10.676;2023-06-04T06:31:30;2.47;;;1.53;;
11125;SDS011;5617;54.046;10.676;2023-06-04T06:33:48;4.23;;;1.90;;
11125;SDS011;5617;54.046;10.676;2023-06-04T06:36:06;3.43;;;1.70;;
11125;SDS011;5617;54.046;10.676;2023-06-04T06:38:27;3.73;;;1.73;;
11125;SDS011;5617;54.046;10.676;2023-06-04T06:40:45;4.13;;;2.00;;
11125;SDS011;5617;54.046;10.676;2023-06-04T06:43:03;4.57;;;1.83;;
11125;SDS011;5617;54.046;10.676;2023-06-04T06:45:22;3.27;;;1.67;;
11125;SDS011;5617;54.046;10.676;2023-06-04T06:47:44;4.30;;;1.60;;
11125;SDS011;5617;54.046;10.676;2023-06-04T06:50:01;4.63;;;1.53;;
11125;SDS011;5617;54.046;10.676;2023-06-04T06:52:20;7.70;;;2.07;;
11125;SDS011;5617;54.046;10.676;2023-06-04T06:54:40;4.67;;;1.50;;
11125;SDS011;5617;54.046;10.676;2023-06-04T06:56:57;3.73;;;1.50;;
11125;SDS011;5617;54.046;10.676;2023-06-04T06:59:14;4.83;;;1.63;;
11125;SDS011;5617;54.046;10.676;2023-06-04T07:01:33;3.50;;;1.40;;
11125;SDS011;5617;54.046;10.676;2023-06-04T07:03:50;3.33;;;1.33;;
11125;SDS011;5617;54.046;10.676;2023-06-04T07:06:07;3.00;;;1.47;;
11125;SDS011;5617;54.046;10.676;2023-06-04T07:08:24;3.77;;;1.50;;
11125;SDS011;5617;54.046;10.676;2023-06-04T07:10:41;3.47;;;1.40;;
11125;SDS011;5617;54.046;10.676;2023-06-04T07:13:05;2.20;;;1.23;;
11125;SDS011;5617;54.046;10.676;2023-06-04T07:15:22;2.97;;;1.30;;
11125;SDS011;5617;54.046;10.676;2023-06-04T07:17:41;1.53;;;1.10;;
11125;SDS011;5617;54.046;10.676;2023-06-04T07:19:59;1.87;;;1.13;;
11125;SDS011;5617;54.046;10.676;2023-06-04T07:22:17;2.80;;;1.47;;
11125;SDS011;5617;54.046;10.676;2023-06-04T07:24:34;2.60;;;1.33;;
11125;SDS011;5617;54.046;10.676;2023-06-04T07:26:51;2.50;;;1.20;;
11125;SDS011;5617;54.046;10.676;2023-06-04T07:29:09;1.50;;;1.03;;
11125;SDS011;5617;54.046;10.676;2023-06-04T07:31:26;1.87;;;1.20;;
11125;SDS011;5617;54.046;10.676;2023-06-04T07:33:44;2.60;;;1.20;;
11125;SDS011;5617;54.046;10.676;2023-06-04T07:36:01;1.87;;;1.33;;
11125;SDS011;5617;54.046;10.676;2023-06-04T07:38:19;2.80;;;1.20;;
11125;SDS011;5617;54.046;10.676;2023-06-04T07:40:39;2.80;;;1.20;;
11125;SDS011;5617;54.046;10.676;2023-06-04T07:42:56;1.43;;;1.20;;
11125;SDS011;5617;54.046;10.676;2023-06-04T07:45:15;1.57;;;1.27;;
11125;SDS011;5617;54.046;10.676;2023-06-04T07:47:35;2.97;;;1.20;;
11125;SDS011;5617;54.046;10.676;2023-06-04T07:49:54;2.50;;;1.30;;
11125;SDS011;5617;54.046;10.676;2023-06-04T07:52:12;2.83;;;1.20;;
11125;SDS011;5617;54.046;10.676;2023-06-04T07:54:32;1.40;;;1.00;;
11125;SDS011;5617;54.046;10.676;2023-06-04T07:56:50;1.93;;;1.10;;
11125;SDS011;5617;54.046;10.676;2023-06-04T07:59:11;2.50;;;1.17;;
11125;SDS011;5617;54.046;10.676;2023-06-04T08:01:28;2.43;;;1.23;;
11125;SDS011;5617;54.046;10.676;2023-06-04T08:03:46;2.13;;;1.17;;
11125;SDS011;5617;54.046;10.676;2023-06-04T08:06:04;2.47;;;1.07;;
11125;SDS011;5617;54.046;10.676;2023-06-04T08:08:22;4.03;;;1.27;;
11125;SDS011;5617;54.046;10.676;2023-06-04T08:10:39;2.20;;;1.13;;
11125;SDS011;5617;54.046;10.676;2023-06-04T08:12:56;2.23;;;1.17;;
11125;SDS011;5617;54.046;10.676;2023-06-04T08:15:14;2.50;;;1.30;;
11125;SDS011;5617;54.046;10.676;2023-06-04T08:17:32;3.13;;;1.43;;
11125;SDS011;5617;54.046;10.676;2023-06-04T08:19:49;2.47;;;1.20;;
11125;SDS011;5617;54.046;10.676;2023-06-04T08:22:07;1.30;;;1.03;;
11125;SDS011;5617;54.046;10.676;2023-06-04T08:24:27;1.67;;;1.30;;
11125;SDS011;5617;54.046;10.676;2023-06-04T08:26:44;2.03;;;1.23;;
11125;SDS011;5617;54.046;10.676;2023-06-04T08:29:02;2.90;;;1.40;;
11125;SDS011;5617;54.046;10.676;2023-06-04T08:31:19;1.70;;;1.20;;
11125;SDS011;5617;54.046;10.676;2023-06-04T08:33:38;3.57;;;1.30;;
11125;SDS011;5617;54.046;10.676;2023-06-04T08:35:56;3.03;;;1.40;;
11125;SDS011;5617;54.046;10.676;2023-06-04T08:38:14;2.80;;;1.30;;
11125;SDS011;5617;54.046;10.676;2023-06-04T08:40:31;3.27;;;1.30;;
11125;SDS011;5617;54.046;10.676;2023-06-04T08:42:50;2.20;;;1.23;;
11125;SDS011;5617;54.046;10.676;2023-06-04T08:45:14;2.60;;;1.33;;
11125;SDS011;5617;54.046;10.676;2023-06-04T08:47:37;1.63;;;1.07;;
11125;SDS011;5617;54.046;10.676;2023-06-04T08:49:59;2.63;;;1.37;;
11125;SDS011;5617;54.046;10.676;2023-06-04T08:52:17;2.07;;;1.17;;
11125;SDS011;5617;54.046;10.676;2023-06-04T08:54:38;1.97;;;1.20;;
11125;SDS011;5617;54.046;10.676;2023-06-04T08:56:56;1.20;;;1.10;;
11125;SDS011;5617;54.046;10.676;2023-06-04T08:59:13;3.20;;;1.30;;
11125;SDS011;5617;54.046;10.676;2023-06-04T09:01:31;2.00;;;1.17;;
11125;SDS011;5617;54.046;10.676;2023-06-04T09:03:49;1.13;;;1.00;;
11125;SDS011;5617;54.046;10.676;2023-06-04T09:06:06;1.90;;;1.00;;
11125;SDS011;5617;54.046;10.676;2023-06-04T09:08:24;1.13;;;1.00;;
11125;SDS011;5617;54.046;10.676;2023-06-04T09:10:44;2.27;;;1.20;;
11125;SDS011;5617;54.046;10.676;2023-06-04T09:13:07;3.20;;;1.30;;
11125;SDS011;5617;54.046;10.676;2023-06-04T09:15:25;2.20;;;1.10;;
11125;SDS011;5617;54.046;10.676;2023-06-04T09:17:43;2.17;;;1.20;;
11125;SDS011;5617;54.046;10.676;2023-06-04T09:20:00;2.13;;;1.20;;
11125;SDS011;5617;54.046;10.676;2023-06-04T09:22:19;2.10;;;1.17;;
11125;SDS011;5617;54.046;10.676;2023-06-04T09:24:38;1.67;;;1.00;;
11125;SDS011;5617;54.046;10.676;2023-06-04T09:26:58;1.40;;;1.00;;
11125;SDS011;5617;54.046;10.676;2023-06-04T09:29:26;3.10;;;1.30;;
11125;SDS011;5617;54.046;10.676;2023-06-04T09:31:44;1.87;;;1.00;;
11125;SDS011;5617;54.046;10.676;2023-06-04T09:34:02;1.77;;;1.27;;
11125;SDS011;5617;54.046;10.676;2023-06-04T09:36:21;2.07;;;1.10;;
11125;SDS011;5617;54.046;10.676;2023-06-04T09:38:38;2.07;;;1.10;;
11125;SDS011;5617;54.046;10.676;2023-06-04T09:40:55;1.97;;;1.00;;
11125;SDS011;5617;54.046;10.676;2023-06-04T09:43:21;2.40;;;1.10;;
11125;SDS011;5617;54.046;10.676;2023-06-04T09:45:39;1.30;;;0.80;;
11125;SDS011;5617;54.046;10.676;2023-06-04T09:47:57;1.63;;;0.80;;
11125;SDS011;5617;54.046;10.676;2023-06-04T09:50:17;1.67;;;0.90;;
11125;SDS011;5617;54.046;10.676;2023-06-04T09:52:42;0.70;;;0.70;;
11125;SDS011;5617;54.046;10.676;2023-06-04T09:55:00;1.30;;;1.00;;
11125;SDS011;5617;54.046;10.676;2023-06-04T09:57:18;1.00;;;0.83;;
11125;SDS011;5617;54.046;10.676;2023-06-04T09:59:38;0.73;;;0.73;;
11125;SDS011;5617;54.046;10.676;2023-06-04T10:01:56;1.07;;;0.70;;
11125;SDS011;5617;54.046;10.676;2023-06-04T10:04:15;0.60;;;0.60;;
11125;SDS011;5617;54.046;10.676;2023-06-04T10:06:33;1.00;;;0.70;;
11125;SDS011;5617;54.046;10.676;2023-06-04T10:08:52;1.17;;;0.80;;
11125;SDS011;5617;54.046;10.676;2023-06-04T10:11:13;1.27;;;0.70;;
11125;SDS011;5617;54.046;10.676;2023-06-04T10:13:35;1.50;;;0.80;;
11125;SDS011;5617;54.046;10.676;2023-06-04T10:15:59;2.23;;;1.00;;
11125;SDS011;5617;54.046;10.676;2023-06-04T10:18:27;0.70;;;0.70;;
11125;SDS011;5617;54.046;10.676;2023-06-04T10:20:45;0.70;;;0.70;;
11125;SDS011;5617;54.046;10.676;2023-06-04T10:23:04;0.80;;;0.80;;
11125;SDS011;5617;54.046;10.676;2023-06-04T10:25:29;0.70;;;0.67;;
11125;SDS011;5617;54.046;10.676;2023-06-04T10:27:46;0.70;;;0.70;;
11125;SDS011;5617;54.046;10.676;2023-06-04T10:30:04;1.73;;;0.97;;
11125;SDS011;5617;54.046;10.676;2023-06-04T10:32:23;1.03;;;0.90;;
11125;SDS011;5617;54.046;10.676;2023-06-04T10:34:43;0.87;;;0.87;;
11125;SDS011;5617;54.046;10.676;2023-06-04T10:37:00;1.23;;;0.87;;
11125;SDS011;5617;54.046;10.676;2023-06-04T10:39:24;2.17;;;0.87;;
11125;SDS011;5617;54.046;10.676;2023-06-04T10:41:42;1.30;;;1.00;;
11125;SDS011;5617;54.046;10.676;2023-06-04T10:44:00;2.77;;;1.00;;
11125;SDS011;5617;54.046;10.676;2023-06-04T10:46:18;1.20;;;0.90;;
11125;SDS011;5617;54.046;10.676;2023-06-04T10:48:45;1.20;;;0.83;;
11125;SDS011;5617;54.046;10.676;2023-06-04T10:51:03;1.57;;;1.10;;
11125;SDS011;5617;54.046;10.676;2023-06-04T10:53:11;2.13;;;1.00;;
11125;SDS011;5617;54.046;10.676;2023-06-04T10:55:19;1.37;;;0.90;;
11125;SDS011;5617;54.046;10.676;2023-06-04T10:57:36;1.80;;;1.00;;
11125;SDS011;5617;54.046;10.676;2023-06-04T10:59:53;0.90;;;0.90;;
11125;SDS011;5617;54.046;10.676;2023-06-04T11:02:04;1.33;;;0.90;;
11125;SDS011;5617;54.046;10.676;2023-06-04T11:04:21;2.63;;;1.00;;
11125;SDS011;5617;54.046;10.676;2023-06-04T11:06:30;2.53;;;1.10;;
11125;SDS011;5617;54.046;10.676;2023-06-04T11:08:38;1.17;;;0.97;;
11125;SDS011;5617;54.046;10.676;2023-06-04T11:10:47;1.10;;;1.00;;
11125;SDS011;5617;54.046;10.676;2023-06-04T11:12:55;1.67;;;0.80;;
11125;SDS011;5617;54.046;10.676;2023-06-04T11:15:04;1.40;;;1.00;;
11125;SDS011;5617;54.046;10.676;2023-06-04T11:17:13;1.67;;;1.00;;
11125;SDS011;5617;54.046;10.676;2023-06-04T11:19:23;2.27;;;1.00;;
11125;SDS011;5617;54.046;10.676;2023-06-04T11:21:41;1.27;;;0.90;;
11125;SDS011;5617;54.046;10.676;2023-06-04T11:23:54;1.57;;;0.97;;
11125;SDS011;5617;54.046;10.676;2023-06-04T11:26:02;1.90;;;1.07;;
11125;SDS011;5617;54.046;10.676;2023-06-04T11:28:14;2.17;;;1.10;;
11125;SDS011;5617;54.046;10.676;2023-06-04T11:30:23;0.97;;;0.93;;
11125;SDS011;5617;54.046;10.676;2023-06-04T11:32:31;1.30;;;0.80;;
11125;SDS011;5617;54.046;10.676;2023-06-04T11:34:40;2.17;;;1.10;;
11125;SDS011;5617;54.046;10.676;2023-06-04T11:36:48;2.87;;;1.20;;
11125;SDS011;5617;54.046;10.676;2023-06-04T11:38:59;1.80;;;1.13;;
11125;SDS011;5617;54.046;10.676;2023-06-04T11:41:09;1.73;;;1.33;;
11125;SDS011;5617;54.046;10.676;2023-06-04T11:43:17;2.97;;;1.23;;
11125;SDS011;5617;54.046;10.676;2023-06-04T11:45:26;1.90;;;1.00;;
11125;SDS011;5617;54.046;10.676;2023-06-04T11:47:36;5.20;;;1.40;;
11125;SDS011;5617;54.046;10.676;2023-06-04T11:49:46;2.63;;;1.33;;
11125;SDS011;5617;54.046;10.676;2023-06-04T11:51:54;3.37;;;1.30;;
11125;SDS011;5617;54.046;10.676;2023-06-04T11:54:02;3.07;;;1.40;;
11125;SDS011;5617;54.046;10.676;2023-06-04T11:56:10;3.23;;;1.47;;
11125;SDS011;5617;54.046;10.676;2023-06-04T11:58:18;2.77;;;1.53;;
11125;SDS011;5617;54.046;10.676;2023-06-04T12:00:26;2.43;;;1.40;;
11125;SDS011;5617;54.046;10.676;2023-06-04T12:02:34;3.10;;;1.20;;
11125;SDS011;5617;54.046;10.676;2023-06-04T12:04:42;2.60;;;1.30;;
11125;SDS011;5617;54.046;10.676;2023-06-04T12:06:53;2.33;;;1.50;;
11125;SDS011;5617;54.046;10.676;2023-06-04T12:09:03;2.37;;;1.30;;
11125;SDS011;5617;54.046;10.676;2023-06-04T12:11:19;3.30;;;2.00;;
11125;SDS011;5617;54.046;10.676;2023-06-04T12:13:41;4.27;;;1.80;;
11125;SDS011;5617;54.046;10.676;2023-06-04T12:15:50;5.60;;;1.80;;
11125;SDS011;5617;54.046;10.676;2023-06-04T12:17:59;3.40;;;1.57;;
11125;SDS011;5617;54.046;10.676;2023-06-04T12:20:07;2.50;;;1.40;;
11125;SDS011;5617;54.046;10.676;2023-06-04T12:22:18;3.20;;;1.40;;
11125;SDS011;5617;54.046;10.676;2023-06-04T12:24:26;2.20;;;1.53;;
11125;SDS011;5617;54.046;10.676;2023-06-04T12:26:36;2.63;;;1.50;;
11125;SDS011;5617;54.046;10.676;2023-06-04T12:28:46;2.83;;;1.33;;
11125;SDS011;5617;54.046;10.676;2023-06-04T12:31:14;2.40;;;1.40;;
11125;SDS011;5617;54.046;10.676;2023-06-04T12:33:22;3.70;;;1.70;;
11125;SDS011;5617;54.046;10.676;2023-06-04T12:35:30;2.97;;;1.40;;
11125;SDS011;5617;54.046;10.676;2023-06-04T12:37:39;2.90;;;1.43;;
11125;SDS011;5617;54.046;10.676;2023-06-04T12:39:47;2.23;;;1.40;;
11125;SDS011;5617;54.046;10.676;2023-06-04T12:41:54;2.20;;;1.40;;
11125;SDS011;5617;54.046;10.676;2023-06-04T12:44:02;3.10;;;1.60;;
11125;SDS011;5617;54.046;10.676;2023-06-04T12:46:10;2.70;;;1.50;;
11125;SDS011;5617;54.046;10.676;2023-06-04T12:48:20;2.97;;;1.77;;
11125;SDS011;5617;54.046;10.676;2023-06-04T12:50:27;4.03;;;1.60;;
11125;SDS011;5617;54.046;10.676;2023-06-04T12:52:35;3.03;;;1.70;;
11125;SDS011;5617;54.046;10.676;2023-06-04T12:54:44;1.93;;;1.50;;
11125;SDS011;5617;54.046;10.676;2023-06-04T12:56:52;3.50;;;2.23;;
11125;SDS011;5617;54.046;10.676;2023-06-04T12:59:03;2.47;;;1.53;;
11125;SDS011;5617;54.046;10.676;2023-06-04T13:01:10;3.27;;;1.60;;
11125;SDS011;5617;54.046;10.676;2023-06-04T13:03:19;4.30;;;1.60;;
11125;SDS011;5617;54.046;10.676;2023-06-04T13:05:26;3.63;;;1.73;;
11125;SDS011;5617;54.046;10.676;2023-06-04T13:07:34;3.17;;;1.50;;
11125;SDS011;5617;54.046;10.676;2023-06-04T13:09:44;3.47;;;1.47;;
11125;SDS011;5617;54.046;10.676;2023-06-04T13:11:52;3.07;;;1.37;;
11125;SDS011;5617;54.046;10.676;2023-06-04T13:13:59;2.47;;;1.40;;
11125;SDS011;5617;54.046;10.676;2023-06-04T13:16:07;3.40;;;1.80;;
11125;SDS011;5617;54.046;10.676;2023-06-04T13:18:15;6.00;;;1.73;;
11125;SDS011;5617;54.046;10.676;2023-06-04T13:20:22;4.00;;;1.80;;
11125;SDS011;5617;54.046;10.676;2023-06-04T13:22:30;2.40;;;1.50;;
11125;SDS011;5617;54.046;10.676;2023-06-04T13:24:38;4.63;;;1.60;;
11125;SDS011;5617;54.046;10.676;2023-06-04T13:26:47;4.40;;;1.47;;
11125;SDS011;5617;54.046;10.676;2023-06-04T13:28:54;3.97;;;1.60;;
11125;SDS011;5617;54.046;10.676;2023-06-04T13:31:02;4.23;;;1.63;;
11125;SDS011;5617;54.046;10.676;2023-06-04T13:33:09;3.57;;;1.83;;
11125;SDS011;5617;54.046;10.676;2023-06-04T13:35:17;3.10;;;1.60;;
11125;SDS011;5617;54.046;10.676;2023-06-04T13:37:25;4.73;;;1.80;;
11125;SDS011;5617;54.046;10.676;2023-06-04T13:39:33;2.80;;;1.60;;
11125;SDS011;5617;54.046;10.676;2023-06-04T13:41:41;2.20;;;1.53;;
11125;SDS011;5617;54.046;10.676;2023-06-04T13:43:50;2.83;;;1.80;;